Antonios — SY8410 — position and weather

sailwx.info

Track history (hours):
 
Tides and Currents Weather Stations Pressure Air Temp Water Temp Dewpoint Dewpoint Depression Visibility Wind Speed Wind Dir Waves Ship Positions

Antonios

Last reported at 2015-May-25 04:32 UTC. Time now 2015-May-25 05:23 UTC.
Position N 36°28' E 025°26'.

Length 57 m; draft 4.1 m.

Type: Tanker. MMSI: 239191300.

Date/timePositionNaut miles runAvg speedWind from/ knotsBaromVisibWave heightAir tempDewpointWater temp
2015-May-25 04:32N 36°28' E 025°26'0 0.0
2015-May-25 03:33N 36°28' E 025°26'0 0.0
2015-May-25 02:33N 36°28' E 025°26'0 0.0
2015-May-25 01:33N 36°28' E 025°26'0 0.0
2015-May-25 00:32N 36°28' E 025°26'0 0.0
2015-May-24 23:33N 36°28' E 025°26'0 0.0
2015-May-24 22:33N 36°28' E 025°26'0 0.0
2015-May-24 21:33N 36°28' E 025°26'4 4.3
2015-May-24 20:33N 36°30' E 025°21'10 9.6
2015-May-24 19:32N 36°30' E 025°09'10 7.8
2015-May-24 18:18N 36°35' E 024°59'83 9.4
2015-May-24 09:31N 37°29' E 023°40'10 9.8
2015-May-24 08:27N 37°36' E 023°30'9 9.6
2015-May-24 07:33N 37°40' E 023°21'10 9.6
2015-May-24 06:33N 37°47' E 023°13'10 7.3
2015-May-24 05:12N 37°55' E 023°05'1 0.1
2015-May-23 22:33N 37°55' E 023°04'0 0.1
2015-May-23 21:33N 37°55' E 023°04'0 0.0
2015-May-23 20:31N 37°55' E 023°04'0 0.0
2015-May-23 19:33N 37°55' E 023°04'0 0.0
2015-May-23 18:32N 37°55' E 023°04'0 0.1
2015-May-23 17:26N 37°55' E 023°05'8 9.4
2015-May-23 16:33N 37°53' E 023°15'1010.3
2015-May-23 15:33N 37°51' E 023°27'1010.0
2015-May-23 14:33N 37°49' E 023°40'1010.4
2015-May-23 13:33N 37°40' E 023°47'1010.3
2015-May-23 12:33N 37°36' E 023°58'12 9.8
2015-May-23 11:18N 37°32' E 024°13'27 9.8
2015-May-23 08:33N 37°24' E 024°45'1010.2
2015-May-23 07:33N 37°20' E 024°57'1010.3
2015-May-23 06:33N 37°18' E 025°10'1010.0
2015-May-23 05:33N 37°16' E 025°22'10 9.7
2015-May-23 04:33N 37°13' E 025°34'10 9.9
2015-May-23 03:33N 37°11' E 025°46'1010.1
2015-May-23 02:34N 37°09' E 025°58'10 9.9
2015-May-23 01:33N 37°06' E 026°10'1010.1
2015-May-23 00:33N 37°04' E 026°23'10 9.9
2015-May-22 23:33N 37°01' E 026°35'1310.0
2015-May-22 22:16N 36°57' E 026°50'8 9.9
2015-May-22 21:30N 36°55' E 026°59'3 1.5
2015-May-22 19:33N 36°56' E 027°03'1 0.7
2015-May-22 18:32N 36°55' E 027°04'0 0.1
2015-May-22 17:32N 36°55' E 027°03'1 0.2
2015-May-22 13:24N 36°56' E 027°03'  
2015-May-17 10:31N 36°57' E 027°01'0 0.0
2015-May-17 09:09N 36°57' E 027°01'0 0.0
2015-May-17 06:19N 36°57' E 027°01'0 0.1
2015-May-17 05:17N 36°57' E 027°01'0 0.0
2015-May-17 02:23N 36°57' E 027°01'0 0.0
2015-May-17 00:27N 36°57' E 027°01'0 0.0
2015-May-16 23:16N 36°57' E 027°01'0 0.0
2015-May-16 22:33N 36°57' E 027°01'0 0.0
2015-May-16 20:27N 36°57' E 027°01'0 0.0
2015-May-16 17:29N 36°57' E 027°01'0 0.0
2015-May-16 05:29N 36°57' E 027°01'  
Track history (hours):
 
Tides and Currents Weather Stations Pressure Air Temp Water Temp Dewpoint Dewpoint Depression Visibility Wind Speed Wind Dir Waves Ship Positions

Antonios

Last reported at 2015-May-25 04:32 UTC. Time now 2015-May-25 05:23 UTC.
Position N 36°28' E 025°26'.

Length 57 m; draft 4.1 m.

Type: Tanker. MMSI: 239191300.

Date/timePositionNaut miles runAvg speedWind from/ knotsBaromVisibWave heightAir tempDewpointWater temp
2015-May-25 04:32N 36°28' E 025°26'0 0.0
2015-May-25 03:33N 36°28' E 025°26'0 0.0
2015-May-25 02:33N 36°28' E 025°26'0 0.0
2015-May-25 01:33N 36°28' E 025°26'0 0.0
2015-May-25 00:32N 36°28' E 025°26'0 0.0
2015-May-24 23:33N 36°28' E 025°26'0 0.0
2015-May-24 22:33N 36°28' E 025°26'0 0.0
2015-May-24 21:33N 36°28' E 025°26'4 4.3
2015-May-24 20:33N 36°30' E 025°21'10 9.6
2015-May-24 19:32N 36°30' E 025°09'10 7.8
2015-May-24 18:18N 36°35' E 024°59'83 9.4
2015-May-24 09:31N 37°29' E 023°40'10 9.8
2015-May-24 08:27N 37°36' E 023°30'9 9.6
2015-May-24 07:33N 37°40' E 023°21'10 9.6
2015-May-24 06:33N 37°47' E 023°13'10 7.3
2015-May-24 05:12N 37°55' E 023°05'1 0.1
2015-May-23 22:33N 37°55' E 023°04'0 0.1
2015-May-23 21:33N 37°55' E 023°04'0 0.0
2015-May-23 20:31N 37°55' E 023°04'0 0.0
2015-May-23 19:33N 37°55' E 023°04'0 0.0
2015-May-23 18:32N 37°55' E 023°04'0 0.1
2015-May-23 17:26N 37°55' E 023°05'8 9.4
2015-May-23 16:33N 37°53' E 023°15'1010.3
2015-May-23 15:33N 37°51' E 023°27'1010.0
2015-May-23 14:33N 37°49' E 023°40'1010.4
2015-May-23 13:33N 37°40' E 023°47'1010.3
2015-May-23 12:33N 37°36' E 023°58'12 9.8
2015-May-23 11:18N 37°32' E 024°13'27 9.8
2015-May-23 08:33N 37°24' E 024°45'1010.2
2015-May-23 07:33N 37°20' E 024°57'1010.3
2015-May-23 06:33N 37°18' E 025°10'1010.0
2015-May-23 05:33N 37°16' E 025°22'10 9.7
2015-May-23 04:33N 37°13' E 025°34'10 9.9
2015-May-23 03:33N 37°11' E 025°46'1010.1
2015-May-23 02:34N 37°09' E 025°58'10 9.9
2015-May-23 01:33N 37°06' E 026°10'1010.1
2015-May-23 00:33N 37°04' E 026°23'10 9.9
2015-May-22 23:33N 37°01' E 026°35'1310.0
2015-May-22 22:16N 36°57' E 026°50'8 9.9
2015-May-22 21:30N 36°55' E 026°59'3 1.5
2015-May-22 19:33N 36°56' E 027°03'1 0.7
2015-May-22 18:32N 36°55' E 027°04'0 0.1
2015-May-22 17:32N 36°55' E 027°03'1 0.2
2015-May-22 13:24N 36°56' E 027°03'  
2015-May-17 10:31N 36°57' E 027°01'0 0.0
2015-May-17 09:09N 36°57' E 027°01'0 0.0
2015-May-17 06:19N 36°57' E 027°01'0 0.1
2015-May-17 05:17N 36°57' E 027°01'0 0.0
2015-May-17 02:23N 36°57' E 027°01'0 0.0
2015-May-17 00:27N 36°57' E 027°01'0 0.0
2015-May-16 23:16N 36°57' E 027°01'0 0.0
2015-May-16 22:33N 36°57' E 027°01'0 0.0
2015-May-16 20:27N 36°57' E 027°01'0 0.0
2015-May-16 17:29N 36°57' E 027°01'0 0.0
2015-May-16 05:29N 36°57' E 027°01'  

Dump ship's entire track history